sensor_id;sensor_type;location;lat;lon;timestamp;pressure;altitude;pressure_sealevel;temperature;humidity
59825;BME280;45703;50.898;6.054;2022-07-22T00:01:02;100758.38;;;16.79;95.76
59825;BME280;45703;50.898;6.054;2022-07-22T00:03:28;100742.06;;;16.69;90.72
59825;BME280;45703;50.898;6.054;2022-07-22T00:05:53;100756.00;;;16.82;91.33
59825;BME280;45703;50.898;6.054;2022-07-22T00:08:19;100753.91;;;16.84;90.73
59825;BME280;45703;50.898;6.054;2022-07-22T00:10:44;100753.56;;;16.81;93.52
59825;BME280;45703;50.898;6.054;2022-07-22T00:13:09;100758.47;;;16.84;90.51
59825;BME280;45703;50.898;6.054;2022-07-22T00:15:35;100757.31;;;16.80;92.97
59825;BME280;45703;50.898;6.054;2022-07-22T00:18:00;100750.22;;;16.74;90.52
59825;BME280;45703;50.898;6.054;2022-07-22T00:20:26;100761.09;;;16.79;93.47
59825;BME280;45703;50.898;6.054;2022-07-22T00:22:51;100756.25;;;16.81;91.77
59825;BME280;45703;50.898;6.054;2022-07-22T00:25:17;100770.25;;;16.78;90.52
59825;BME280;45703;50.898;6.054;2022-07-22T00:27:42;100759.44;;;16.78;94.91
59825;BME280;45703;50.898;6.054;2022-07-22T00:30:08;100761.59;;;16.76;91.01
59825;BME280;45703;50.898;6.054;2022-07-22T00:32:33;100764.28;;;16.76;95.87
59825;BME280;45703;50.898;6.054;2022-07-22T00:34:58;100764.28;;;16.76;92.84
59825;BME280;45703;50.898;6.054;2022-07-22T00:37:24;100753.16;;;16.72;93.36
59825;BME280;45703;50.898;6.054;2022-07-22T00:39:49;100747.97;;;16.66;91.69
59825;BME280;45703;50.898;6.054;2022-07-22T00:42:14;100744.69;;;16.64;91.25
59825;BME280;45703;50.898;6.054;2022-07-22T00:44:40;100752.84;;;16.69;91.71
59825;BME280;45703;50.898;6.054;2022-07-22T00:47:06;100738.81;;;16.67;91.77
59825;BME280;45703;50.898;6.054;2022-07-22T00:49:32;100738.53;;;16.68;91.01
59825;BME280;45703;50.898;6.054;2022-07-22T00:51:57;100739.69;;;16.72;90.49
59825;BME280;45703;50.898;6.054;2022-07-22T00:54:23;100738.38;;;16.75;91.44
59825;BME280;45703;50.898;6.054;2022-07-22T00:56:48;100739.94;;;16.71;91.33
59825;BME280;45703;50.898;6.054;2022-07-22T00:59:14;100739.44;;;16.74;90.97
59825;BME280;45703;50.898;6.054;2022-07-22T01:01:39;100736.69;;;16.69;91.68
59825;BME280;45703;50.898;6.054;2022-07-22T01:04:05;100748.53;;;16.68;90.33
59825;BME280;45703;50.898;6.054;2022-07-22T01:06:30;100743.72;;;16.70;92.12
59825;BME280;45703;50.898;6.054;2022-07-22T01:08:56;100742.56;;;16.66;92.01
59825;BME280;45703;50.898;6.054;2022-07-22T01:11:22;100735.56;;;16.65;93.02
59825;BME280;45703;50.898;6.054;2022-07-22T01:13:48;100729.31;;;16.64;90.59
59825;BME280;45703;50.898;6.054;2022-07-22T01:16:15;100737.97;;;16.66;91.44
59825;BME280;45703;50.898;6.054;2022-07-22T01:18:41;100737.97;;;16.66;90.45
59825;BME280;45703;50.898;6.054;2022-07-22T01:21:07;100738.81;;;16.67;92.07
59825;BME280;45703;50.898;6.054;2022-07-22T01:23:34;100740.59;;;16.61;90.25
59825;BME280;45703;50.898;6.054;2022-07-22T01:26:00;100734.47;;;16.66;90.14
59825;BME280;45703;50.898;6.054;2022-07-22T01:28:25;100737.25;;;16.71;89.79
59825;BME280;45703;50.898;6.054;2022-07-22T01:30:51;100730.16;;;16.65;93.67
59825;BME280;45703;50.898;6.054;2022-07-22T01:33:20;100737.97;;;16.66;91.11
59825;BME280;45703;50.898;6.054;2022-07-22T01:35:46;100733.41;;;16.67;90.05
59825;BME280;45703;50.898;6.054;2022-07-22T01:38:12;100731.44;;;16.62;90.45
59825;BME280;45703;50.898;6.054;2022-07-22T01:40:39;100713.81;;;16.55;89.83
59825;BME280;45703;50.898;6.054;2022-07-22T01:43:05;100725.34;;;16.67;90.42
59825;BME280;45703;50.898;6.054;2022-07-22T01:45:31;100733.97;;;16.69;91.50
59825;BME280;45703;50.898;6.054;2022-07-22T01:47:56;100741.56;;;16.72;90.41
59825;BME280;45703;50.898;6.054;2022-07-22T01:50:22;100735.63;;;16.70;89.68
59825;BME280;45703;50.898;6.054;2022-07-22T01:52:47;100732.59;;;16.66;89.98
59825;BME280;45703;50.898;6.054;2022-07-22T01:55:12;100741.75;;;16.65;92.75
59825;BME280;45703;50.898;6.054;2022-07-22T01:57:39;100739.38;;;16.69;89.90
59825;BME280;45703;50.898;6.054;2022-07-22T02:00:06;100745.84;;;16.68;89.67
59825;BME280;45703;50.898;6.054;2022-07-22T02:02:33;100747.47;;;16.69;92.52
59825;BME280;45703;50.898;6.054;2022-07-22T02:04:59;100753.94;;;16.68;90.95
59825;BME280;45703;50.898;6.054;2022-07-22T02:07:24;100733.91;;;16.64;89.80
59825;BME280;45703;50.898;6.054;2022-07-22T02:09:51;100737.19;;;16.66;89.71
59825;BME280;45703;50.898;6.054;2022-07-22T02:12:17;100735.28;;;16.66;90.82
59825;BME280;45703;50.898;6.054;2022-07-22T02:14:42;100732.84;;;16.65;92.01
59825;BME280;45703;50.898;6.054;2022-07-22T02:17:08;100737.97;;;16.66;90.27
59825;BME280;45703;50.898;6.054;2022-07-22T02:19:33;100739.53;;;16.62;91.54
59825;BME280;45703;50.898;6.054;2022-07-22T02:21:58;100734.41;;;16.61;90.14
59825;BME280;45703;50.898;6.054;2022-07-22T02:24:24;100733.84;;;16.59;90.50
59825;BME280;45703;50.898;6.054;2022-07-22T02:26:49;100724.59;;;16.55;90.17
59825;BME280;45703;50.898;6.054;2022-07-22T02:29:14;100730.81;;;16.55;90.46
59825;BME280;45703;50.898;6.054;2022-07-22T02:31:40;100726.16;;;16.51;94.44
59825;BME280;45703;50.898;6.054;2022-07-22T02:34:05;100707.66;;;16.38;92.75
59825;BME280;45703;50.898;6.054;2022-07-22T02:36:31;100721.84;;;16.50;90.84
59825;BME280;45703;50.898;6.054;2022-07-22T02:38:56;100717.00;;;16.52;90.48
59825;BME280;45703;50.898;6.054;2022-07-22T02:41:21;100718.63;;;16.53;90.29
59825;BME280;45703;50.898;6.054;2022-07-22T02:43:47;100708.91;;;16.52;90.12
59825;BME280;45703;50.898;6.054;2022-07-22T02:46:12;100709.50;;;16.54;91.69
59825;BME280;45703;50.898;6.054;2022-07-22T02:48:37;100711.94;;;16.55;91.31
59825;BME280;45703;50.898;6.054;2022-07-22T02:51:03;100709.00;;;16.57;89.54
59825;BME280;45703;50.898;6.054;2022-07-22T02:53:28;100708.75;;;16.58;90.05
59825;BME280;45703;50.898;6.054;2022-07-22T02:55:54;100705.66;;;16.50;90.33
59825;BME280;45703;50.898;6.054;2022-07-22T02:58:19;100709.25;;;16.55;95.30
59825;BME280;45703;50.898;6.054;2022-07-22T03:00:44;100710.56;;;16.53;91.18
59825;BME280;45703;50.898;6.054;2022-07-22T03:03:10;100714.31;;;16.52;89.84
59825;BME280;45703;50.898;6.054;2022-07-22T03:05:35;100712.19;;;16.54;90.01
59825;BME280;45703;50.898;6.054;2022-07-22T03:08:01;100712.19;;;16.54;90.61
59825;BME280;45703;50.898;6.054;2022-07-22T03:10:26;100701.91;;;16.51;90.42
59825;BME280;45703;50.898;6.054;2022-07-22T03:12:51;100710.56;;;16.53;90.50
59825;BME280;45703;50.898;6.054;2022-07-22T03:15:17;100707.28;;;16.51;90.19
59825;BME280;45703;50.898;6.054;2022-07-22T03:17:42;100705.66;;;16.50;90.17
59825;BME280;45703;50.898;6.054;2022-07-22T03:20:09;100700.84;;;16.52;90.37
59825;BME280;45703;50.898;6.054;2022-07-22T03:22:34;100705.66;;;16.50;90.57
59825;BME280;45703;50.898;6.054;2022-07-22T03:25:00;100702.72;;;16.51;90.50
59825;BME280;45703;50.898;6.054;2022-07-22T03:27:25;100703.22;;;16.48;90.22
59825;BME280;45703;50.898;6.054;2022-07-22T03:29:51;100697.28;;;16.46;90.14
59825;BME280;45703;50.898;6.054;2022-07-22T03:32:17;100699.19;;;16.51;90.42
59825;BME280;45703;50.898;6.054;2022-07-22T03:34:43;100693.25;;;16.49;90.56
59825;BME280;45703;50.898;6.054;2022-07-22T03:37:09;100688.91;;;16.48;90.05
59825;BME280;45703;50.898;6.054;2022-07-22T03:39:34;100686.72;;;16.45;90.65
59825;BME280;45703;50.898;6.054;2022-07-22T03:41:59;100690.19;;;16.40;92.37
59825;BME280;45703;50.898;6.054;2022-07-22T03:44:25;100691.47;;;16.38;90.87
59825;BME280;45703;50.898;6.054;2022-07-22T03:46:50;100699.06;;;16.41;90.66
59825;BME280;45703;50.898;6.054;2022-07-22T03:49:16;100705.84;;;16.43;91.20
59825;BME280;45703;50.898;6.054;2022-07-22T03:51:41;100701.75;;;16.41;91.24
59825;BME280;45703;50.898;6.054;2022-07-22T03:54:06;100709.28;;;16.39;90.77
59825;BME280;45703;50.898;6.054;2022-07-22T03:56:32;100699.00;;;16.36;90.82
59825;BME280;45703;50.898;6.054;2022-07-22T03:58:57;100701.19;;;16.39;90.44
59825;BME280;45703;50.898;6.054;2022-07-22T04:01:23;100713.31;;;16.36;91.76
59825;BME280;45703;50.898;6.054;2022-07-22T04:03:48;100701.13;;;16.34;90.63
59825;BME280;45703;50.898;6.054;2022-07-22T04:06:14;100704.47;;;16.41;90.09
59825;BME280;45703;50.898;6.054;2022-07-22T04:08:40;100705.53;;;16.40;90.12
59825;BME280;45703;50.898;6.054;2022-07-22T04:11:05;100704.22;;;16.42;90.02
59825;BME280;45703;50.898;6.054;2022-07-22T04:13:30;100707.50;;;16.44;89.93
59825;BME280;45703;50.898;6.054;2022-07-22T04:15:56;100694.16;;;16.38;89.80
59825;BME280;45703;50.898;6.054;2022-07-22T04:18:21;100702.59;;;16.41;90.14
59825;BME280;45703;50.898;6.054;2022-07-22T04:20:46;100710.97;;;16.45;90.09
59825;BME280;45703;50.898;6.054;2022-07-22T04:23:12;100700.13;;;16.40;91.30
59825;BME280;45703;50.898;6.054;2022-07-22T04:25:38;100709.13;;;16.45;89.74
59825;BME280;45703;50.898;6.054;2022-07-22T04:28:03;100705.28;;;16.41;90.26
59825;BME280;45703;50.898;6.054;2022-07-22T04:30:29;100700.47;;;16.43;89.94
59825;BME280;45703;50.898;6.054;2022-07-22T04:32:54;100706.50;;;16.50;90.07
59825;BME280;45703;50.898;6.054;2022-07-22T04:35:19;100707.78;;;16.48;89.54
59825;BME280;45703;50.898;6.054;2022-07-22T04:37:45;100715.63;;;16.49;90.15
59825;BME280;45703;50.898;6.054;2022-07-22T04:40:10;100706.16;;;16.47;89.76
59825;BME280;45703;50.898;6.054;2022-07-22T04:42:36;100715.31;;;16.46;90.10
59825;BME280;45703;50.898;6.054;2022-07-22T04:45:02;100712.31;;;16.42;90.05
59825;BME280;45703;50.898;6.054;2022-07-22T04:47:27;100715.06;;;16.47;90.40
59825;BME280;45703;50.898;6.054;2022-07-22T04:49:53;100701.34;;;16.49;89.66
59825;BME280;45703;50.898;6.054;2022-07-22T04:52:18;100702.41;;;16.48;90.05
59825;BME280;45703;50.898;6.054;2022-07-22T04:54:44;100702.41;;;16.48;89.78
59825;BME280;45703;50.898;6.054;2022-07-22T04:57:09;100706.22;;;16.52;89.82
59825;BME280;45703;50.898;6.054;2022-07-22T04:59:34;100702.22;;;16.54;89.79
59825;BME280;45703;50.898;6.054;2022-07-22T05:02:00;100705.50;;;16.56;89.57
59825;BME280;45703;50.898;6.054;2022-07-22T05:04:25;100686.22;;;16.48;89.34
59825;BME280;45703;50.898;6.054;2022-07-22T05:06:50;100699.94;;;16.63;89.37
59825;BME280;45703;50.898;6.054;2022-07-22T05:09:16;100682.38;;;16.60;89.04
59825;BME280;45703;50.898;6.054;2022-07-22T05:11:41;100692.72;;;16.68;89.04
59825;BME280;45703;50.898;6.054;2022-07-22T05:14:07;100699.56;;;16.76;88.98
59825;BME280;45703;50.898;6.054;2022-07-22T05:16:32;100694.97;;;16.76;88.48
59825;BME280;45703;50.898;6.054;2022-07-22T05:18:57;100697.94;;;16.75;88.39
59825;BME280;45703;50.898;6.054;2022-07-22T05:21:23;100695.47;;;16.73;88.43
59825;BME280;45703;50.898;6.054;2022-07-22T05:23:48;100691.72;;;16.74;88.12
59825;BME280;45703;50.898;6.054;2022-07-22T05:26:13;100699.63;;;16.81;88.44
59825;BME280;45703;50.898;6.054;2022-07-22T05:28:39;100700.69;;;16.80;88.23
59825;BME280;45703;50.898;6.054;2022-07-22T05:31:04;100694.28;;;16.86;88.13
59825;BME280;45703;50.898;6.054;2022-07-22T05:33:29;100681.38;;;16.88;87.93
59825;BME280;45703;50.898;6.054;2022-07-22T05:35:55;100688.41;;;16.89;88.07
59825;BME280;45703;50.898;6.054;2022-07-22T05:38:21;100690.66;;;16.97;88.10
59825;BME280;45703;50.898;6.054;2022-07-22T05:40:46;100690.16;;;17.00;87.91
59825;BME280;45703;50.898;6.054;2022-07-22T05:43:12;100686.13;;;17.02;87.97
59825;BME280;45703;50.898;6.054;2022-07-22T05:45:37;100688.56;;;17.04;87.56
59825;BME280;45703;50.898;6.054;2022-07-22T05:48:02;100687.00;;;17.08;87.80
59825;BME280;45703;50.898;6.054;2022-07-22T05:50:28;100690.53;;;17.08;87.30
59825;BME280;45703;50.898;6.054;2022-07-22T05:52:53;100685.13;;;17.08;87.06
59825;BME280;45703;50.898;6.054;2022-07-22T05:55:19;100697.38;;;17.16;87.08
59825;BME280;45703;50.898;6.054;2022-07-22T05:57:44;100689.31;;;17.21;86.67
59825;BME280;45703;50.898;6.054;2022-07-22T06:00:10;100686.91;;;17.24;86.99
59825;BME280;45703;50.898;6.054;2022-07-22T06:02:35;100692.63;;;17.28;86.75
59825;BME280;45703;50.898;6.054;2022-07-22T06:05:01;100690.03;;;17.33;86.26
59825;BME280;45703;50.898;6.054;2022-07-22T06:07:26;100689.28;;;17.37;85.91
59825;BME280;45703;50.898;6.054;2022-07-22T06:09:53;100691.75;;;17.43;85.50
59825;BME280;45703;50.898;6.054;2022-07-22T06:12:18;100685.84;;;17.46;85.42
59825;BME280;45703;50.898;6.054;2022-07-22T06:14:43;100679.38;;;17.47;85.36
59825;BME280;45703;50.898;6.054;2022-07-22T06:17:09;100688.06;;;17.54;85.47
59825;BME280;45703;50.898;6.054;2022-07-22T06:19:34;100699.50;;;17.61;85.43
59825;BME280;45703;50.898;6.054;2022-07-22T06:22:00;100685.75;;;17.63;84.62
59825;BME280;45703;50.898;6.054;2022-07-22T06:24:25;100692.56;;;17.70;84.52
59825;BME280;45703;50.898;6.054;2022-07-22T06:26:50;100682.06;;;17.74;84.43
59825;BME280;45703;50.898;6.054;2022-07-22T06:29:16;100687.78;;;17.77;84.25
59825;BME280;45703;50.898;6.054;2022-07-22T06:31:41;100690.25;;;17.84;83.78
59825;BME280;45703;50.898;6.054;2022-07-22T06:34:07;100694.88;;;17.88;83.81
59825;BME280;45703;50.898;6.054;2022-07-22T06:36:32;100693.84;;;17.94;83.63
59825;BME280;45703;50.898;6.054;2022-07-22T06:38:58;100693.13;;;18.04;83.54
59825;BME280;45703;50.898;6.054;2022-07-22T06:41:24;100688.28;;;18.06;83.59
59825;BME280;45703;50.898;6.054;2022-07-22T06:43:49;100688.09;;;18.17;83.43
59825;BME280;45703;50.898;6.054;2022-07-22T06:46:14;100692.47;;;18.23;83.11
59825;BME280;45703;50.898;6.054;2022-07-22T06:48:40;100687.59;;;18.25;82.81
59825;BME280;45703;50.898;6.054;2022-07-22T06:51:05;100691.47;;;18.34;82.68
59825;BME280;45703;50.898;6.054;2022-07-22T06:53:32;100692.59;;;18.38;82.44
59825;BME280;45703;50.898;6.054;2022-07-22T06:55:57;100684.47;;;18.38;82.54
59825;BME280;45703;50.898;6.054;2022-07-22T06:58:22;100680.16;;;18.42;82.11
59825;BME280;45703;50.898;6.054;2022-07-22T07:00:48;100676.41;;;18.48;82.36
59825;BME280;45703;50.898;6.054;2022-07-22T07:03:13;100677.84;;;18.61;82.47
59825;BME280;45703;50.898;6.054;2022-07-22T07:05:38;100677.63;;;18.67;82.49
59825;BME280;45703;50.898;6.054;2022-07-22T07:08:04;100662.50;;;18.71;81.85
59825;BME280;45703;50.898;6.054;2022-07-22T07:10:29;100672.81;;;18.79;82.04
59825;BME280;45703;50.898;6.054;2022-07-22T07:12:58;100662.00;;;18.84;81.64
59825;BME280;45703;50.898;6.054;2022-07-22T07:15:27;100669.88;;;18.91;81.44
59825;BME280;45703;50.898;6.054;2022-07-22T07:17:53;100674.47;;;18.95;80.79
59825;BME280;45703;50.898;6.054;2022-07-22T07:20:19;100665.81;;;18.93;80.50
59825;BME280;45703;50.898;6.054;2022-07-22T07:22:44;100676.09;;;18.96;80.28
59825;BME280;45703;50.898;6.054;2022-07-22T07:25:10;100670.69;;;18.96;80.51
59825;BME280;45703;50.898;6.054;2022-07-22T07:27:35;100670.69;;;18.96;80.16
59825;BME280;45703;50.898;6.054;2022-07-22T07:30:03;100676.63;;;18.93;80.25
59825;BME280;45703;50.898;6.054;2022-07-22T07:32:29;100666.91;;;18.92;80.25
59825;BME280;45703;50.898;6.054;2022-07-22T07:34:54;100635.47;;;18.81;80.23
59825;BME280;45703;50.898;6.054;2022-07-22T07:37:20;100657.16;;;18.96;79.81
59825;BME280;45703;50.898;6.054;2022-07-22T07:39:45;100659.34;;;18.99;79.99
59825;BME280;45703;50.898;6.054;2022-07-22T07:42:10;100659.34;;;18.99;79.66
59825;BME280;45703;50.898;6.054;2022-07-22T07:44:36;100650.41;;;18.98;79.68
59825;BME280;45703;50.898;6.054;2022-07-22T07:47:01;100657.19;;;19.01;79.47
59825;BME280;45703;50.898;6.054;2022-07-22T07:49:26;100666.66;;;19.03;79.28
59825;BME280;45703;50.898;6.054;2022-07-22T07:51:52;100659.09;;;19.05;79.13
59825;BME280;45703;50.898;6.054;2022-07-22T07:54:17;100657.75;;;19.08;79.26
59825;BME280;45703;50.898;6.054;2022-07-22T07:56:43;100668.03;;;19.11;79.14
59825;BME280;45703;50.898;6.054;2022-07-22T07:59:08;100669.19;;;19.15;79.04
59825;BME280;45703;50.898;6.054;2022-07-22T08:01:35;100656.41;;;19.05;78.57
59825;BME280;45703;50.898;6.054;2022-07-22T08:04:01;100669.72;;;19.17;78.54
59825;BME280;45703;50.898;6.054;2022-07-22T08:06:26;100676.50;;;19.19;78.42
59825;BME280;45703;50.898;6.054;2022-07-22T08:08:52;100678.41;;;19.24;78.46
59825;BME280;45703;50.898;6.054;2022-07-22T08:11:17;100668.66;;;19.28;78.59
59825;BME280;45703;50.898;6.054;2022-07-22T08:13:42;100660.56;;;19.33;78.71
59825;BME280;45703;50.898;6.054;2022-07-22T08:16:08;100670.06;;;19.40;78.46
59825;BME280;45703;50.898;6.054;2022-07-22T08:18:33;100670.88;;;19.46;78.23
59825;BME280;45703;50.898;6.054;2022-07-22T08:20:58;100665.75;;;19.49;78.43
59825;BME280;45703;50.898;6.054;2022-07-22T08:23:24;100666.00;;;19.63;77.91
59825;BME280;45703;50.898;6.054;2022-07-22T08:25:49;100666.03;;;19.68;77.05
59825;BME280;45703;50.898;6.054;2022-07-22T08:28:15;100653.03;;;19.70;76.83
59825;BME280;45703;50.898;6.054;2022-07-22T08:30:40;100661.94;;;19.75;77.02
59825;BME280;45703;50.898;6.054;2022-07-22T08:33:06;100654.09;;;19.79;77.10
59825;BME280;45703;50.898;6.054;2022-07-22T08:35:32;100655.97;;;19.88;77.19
59825;BME280;45703;50.898;6.054;2022-07-22T08:37:57;100648.66;;;19.99;76.89
59825;BME280;45703;50.898;6.054;2022-07-22T08:40:23;100651.13;;;20.10;77.28
59825;BME280;45703;50.898;6.054;2022-07-22T08:42:49;100645.69;;;20.20;76.80
59825;BME280;45703;50.898;6.054;2022-07-22T08:45:15;100654.63;;;20.36;76.18
59825;BME280;45703;50.898;6.054;2022-07-22T08:47:44;100656.75;;;20.43;75.62
59825;BME280;45703;50.898;6.054;2022-07-22T08:50:10;100658.09;;;20.51;75.81
59825;BME280;45703;50.898;6.054;2022-07-22T08:52:36;100650.72;;;20.61;75.68
59825;BME280;45703;50.898;6.054;2022-07-22T08:55:05;100649.88;;;20.76;75.78
59825;BME280;45703;50.898;6.054;2022-07-22T08:57:32;100645.75;;;20.93;75.53
59825;BME280;45703;50.898;6.054;2022-07-22T08:59:59;100640.28;;;21.03;75.33
59825;BME280;45703;50.898;6.054;2022-07-22T09:02:25;100650.50;;;21.16;75.34
59825;BME280;45703;50.898;6.054;2022-07-22T09:05:05;100650.72;;;21.30;74.55
59825;BME280;45703;50.898;6.054;2022-07-22T09:07:37;100651.25;;;21.32;74.54
59825;BME280;45703;50.898;6.054;2022-07-22T09:10:05;100659.09;;;21.38;74.46
59825;BME280;45703;50.898;6.054;2022-07-22T09:12:30;100667.75;;;21.40;74.04
59825;BME280;45703;50.898;6.054;2022-07-22T09:15:00;100666.94;;;21.40;74.00
59825;BME280;45703;50.898;6.054;2022-07-22T09:17:30;100667.47;;;21.42;73.85
59825;BME280;45703;50.898;6.054;2022-07-22T09:19:59;100647.38;;;21.38;73.37
59825;BME280;45703;50.898;6.054;2022-07-22T09:22:32;100653.66;;;21.38;73.67
59825;BME280;45703;50.898;6.054;2022-07-22T09:24:58;100648.75;;;21.40;73.64
59825;BME280;45703;50.898;6.054;2022-07-22T09:27:27;100660.72;;;21.39;73.49
59825;BME280;45703;50.898;6.054;2022-07-22T09:29:52;100646.91;;;21.31;73.26
59825;BME280;45703;50.898;6.054;2022-07-22T09:32:18;100655.84;;;21.36;73.43
59825;BME280;45703;50.898;6.054;2022-07-22T09:34:44;100658.03;;;21.34;73.03
59825;BME280;45703;50.898;6.054;2022-07-22T09:37:11;100654.53;;;21.29;73.22
59825;BME280;45703;50.898;6.054;2022-07-22T09:39:36;100653.72;;;21.28;73.48
59825;BME280;45703;50.898;6.054;2022-07-22T09:42:06;100653.44;;;21.30;73.52
59825;BME280;45703;50.898;6.054;2022-07-22T09:44:32;100652.06;;;21.32;73.48
59825;BME280;45703;50.898;6.054;2022-07-22T09:46:57;100649.34;;;21.32;73.67
59825;BME280;45703;50.898;6.054;2022-07-22T09:49:38;100647.16;;;21.34;73.23
59825;BME280;45703;50.898;6.054;2022-07-22T09:52:06;100650.41;;;21.36;72.98
59825;BME280;45703;50.898;6.054;2022-07-22T09:54:32;100638.97;;;21.39;73.40
59825;BME280;45703;50.898;6.054;2022-07-22T09:56:58;100636.22;;;21.44;73.31
59825;BME280;45703;50.898;6.054;2022-07-22T09:59:24;100627.50;;;21.47;72.79
59825;BME280;45703;50.898;6.054;2022-07-22T10:01:53;100615.00;;;21.46;72.45
59825;BME280;45703;50.898;6.054;2022-07-22T10:04:20;100615.97;;;21.60;72.55
59825;BME280;45703;50.898;6.054;2022-07-22T10:06:47;100607.88;;;21.55;71.96
59825;BME280;45703;50.898;6.054;2022-07-22T10:09:14;100609.75;;;21.60;71.90
59825;BME280;45703;50.898;6.054;2022-07-22T10:11:40;100608.69;;;21.61;72.15
59825;BME280;45703;50.898;6.054;2022-07-22T10:14:11;100613.78;;;21.67;72.60
59825;BME280;45703;50.898;6.054;2022-07-22T10:16:37;100605.63;;;21.72;71.54
59825;BME280;45703;50.898;6.054;2022-07-22T10:19:03;100606.19;;;21.69;71.09
59825;BME280;45703;50.898;6.054;2022-07-22T10:21:33;100611.03;;;21.72;71.30
59825;BME280;45703;50.898;6.054;2022-07-22T10:24:16;100609.94;;;21.73;71.44
59825;BME280;45703;50.898;6.054;2022-07-22T10:26:56;100617.75;;;21.80;71.76
59825;BME280;45703;50.898;6.054;2022-07-22T10:29:42;100621.22;;;21.90;71.29
59825;BME280;45703;50.898;6.054;2022-07-22T10:34:40;100613.63;;;22.15;71.09
59825;BME280;45703;50.898;6.054;2022-07-22T10:37:47;100620.81;;;22.30;70.95
59825;BME280;45703;50.898;6.054;2022-07-22T10:43:06;100613.69;;;22.34;68.23
59825;BME280;45703;50.898;6.054;2022-07-22T10:45:36;100615.38;;;22.30;68.49
59825;BME280;45703;50.898;6.054;2022-07-22T10:48:08;100608.81;;;22.31;68.40
59825;BME280;45703;50.898;6.054;2022-07-22T10:51:15;100603.38;;;22.31;68.67
59825;BME280;45703;50.898;6.054;2022-07-22T10:56:25;100601.16;;;22.38;68.85
59825;BME280;45703;50.898;6.054;2022-07-22T10:59:13;100604.50;;;22.30;67.54
59825;BME280;45703;50.898;6.054;2022-07-22T11:01:47;100604.16;;;22.08;66.42
59825;BME280;45703;50.898;6.054;2022-07-22T11:06:38;100593.41;;;21.98;68.55
59825;BME280;45703;50.898;6.054;2022-07-22T11:09:09;100593.34;;;22.03;68.50
59825;BME280;45703;50.898;6.054;2022-07-22T11:11:42;100601.97;;;22.10;68.67
59825;BME280;45703;50.898;6.054;2022-07-22T11:14:33;100599.69;;;22.22;68.72
59825;BME280;45703;50.898;6.054;2022-07-22T11:19:32;100590.22;;;22.43;67.97
59825;BME280;45703;50.898;6.054;2022-07-22T11:22:05;100584.13;;;22.51;68.19
59825;BME280;45703;50.898;6.054;2022-07-22T11:24:31;100576.28;;;22.68;68.40
59825;BME280;45703;50.898;6.054;2022-07-22T11:26:58;100567.94;;;22.83;68.28
59825;BME280;45703;50.898;6.054;2022-07-22T11:31:55;100567.63;;;23.03;67.31
59825;BME280;45703;50.898;6.054;2022-07-22T11:34:21;100567.75;;;23.16;67.20
59825;BME280;45703;50.898;6.054;2022-07-22T11:36:48;100569.78;;;23.24;67.12
59825;BME280;45703;50.898;6.054;2022-07-22T11:39:17;100561.75;;;23.33;67.19
59825;BME280;45703;50.898;6.054;2022-07-22T11:41:43;100555.91;;;23.39;66.75
59825;BME280;45703;50.898;6.054;2022-07-22T11:44:09;100557.78;;;23.44;65.56
59825;BME280;45703;50.898;6.054;2022-07-22T11:46:39;100556.88;;;23.48;65.65
59825;BME280;45703;50.898;6.054;2022-07-22T11:49:05;100557.97;;;23.47;65.77
59825;BME280;45703;50.898;6.054;2022-07-22T11:51:33;100555.31;;;23.42;64.87
59825;BME280;45703;50.898;6.054;2022-07-22T11:53:59;100553.34;;;23.48;65.63
59825;BME280;45703;50.898;6.054;2022-07-22T11:56:25;100548.72;;;23.48;66.15
59825;BME280;45703;50.898;6.054;2022-07-22T11:58:51;100541.47;;;23.57;66.03
59825;BME280;45703;50.898;6.054;2022-07-22T12:01:25;100541.88;;;23.64;65.70
59825;BME280;45703;50.898;6.054;2022-07-22T12:03:58;100541.47;;;23.70;65.86
59825;BME280;45703;50.898;6.054;2022-07-22T12:06:26;100540.59;;;23.75;65.41
59825;BME280;45703;50.898;6.054;2022-07-22T12:09:02;100533.75;;;23.77;65.36
59825;BME280;45703;50.898;6.054;2022-07-22T12:11:28;100538.09;;;23.78;65.36
59825;BME280;45703;50.898;6.054;2022-07-22T12:13:54;100546.38;;;23.87;65.46
59825;BME280;45703;50.898;6.054;2022-07-22T12:16:24;100532.66;;;23.92;65.19
59825;BME280;45703;50.898;6.054;2022-07-22T12:18:51;100522.25;;;23.94;64.03
59825;BME280;45703;50.898;6.054;2022-07-22T12:21:17;100520.84;;;23.96;64.71
59825;BME280;45703;50.898;6.054;2022-07-22T12:26:43;100523.38;;;24.06;64.16
59825;BME280;45703;50.898;6.054;2022-07-22T12:29:16;100513.69;;;24.00;62.60
59825;BME280;45703;50.898;6.054;2022-07-22T12:31:47;100503.16;;;23.94;63.11
59825;BME280;45703;50.898;6.054;2022-07-22T12:34:13;100507.81;;;23.93;63.62
59825;BME280;45703;50.898;6.054;2022-07-22T12:36:43;100504.38;;;24.01;63.33
59825;BME280;45703;50.898;6.054;2022-07-22T12:39:13;100501.75;;;23.96;62.70
59825;BME280;45703;50.898;6.054;2022-07-22T12:41:45;100512.06;;;23.99;63.43
59825;BME280;45703;50.898;6.054;2022-07-22T12:44:19;100500.56;;;24.02;63.64
59825;BME280;45703;50.898;6.054;2022-07-22T12:46:47;100494.09;;;24.12;63.68
59825;BME280;45703;50.898;6.054;2022-07-22T12:49:15;100498.94;;;24.15;63.53
59825;BME280;45703;50.898;6.054;2022-07-22T12:51:41;100495.78;;;24.21;63.54
59825;BME280;45703;50.898;6.054;2022-07-22T12:54:06;100502.34;;;24.34;63.44
59825;BME280;45703;50.898;6.054;2022-07-22T12:56:32;100498.00;;;24.46;62.97
59825;BME280;45703;50.898;6.054;2022-07-22T12:58:58;100490.13;;;24.58;63.15
59825;BME280;45703;50.898;6.054;2022-07-22T13:01:24;100498.69;;;24.65;62.87
59825;BME280;45703;50.898;6.054;2022-07-22T13:03:49;100505.25;;;24.78;62.46
59825;BME280;45703;50.898;6.054;2022-07-22T13:06:14;100498.75;;;24.87;62.30